Terminal Aerodrome Forecast
Issued by NWS Sterling, VA

Current Version | Previous Version | Graphics & Text | Print | Product List | Glossary On
Versions: 1 2 3 4 5 6 7 8 9 10 11 12 13 14 15
681
FTUS41 KLWX 212340
TAFMRB
TAF
KMRB 212340Z 2200/2224 16006KT P6SM SKC
     FM220400 21006KT P6SM BKN250
     FM220900 27004KT P6SM BKN060
     FM221200 31009KT P6SM SCT070
     FM221400 31018G30KT P6SM SCT110
     FM222200 32009KT P6SM SKC=

USA.gov is the U.S. government's official web portal to all federal, state and local government web resources and services.